sensor_id;sensor_type;location;lat;lon;timestamp;P1;durP1;ratioP1;P2;durP2;ratioP2
11113;SDS011;5610;52.154;9.198;2023-01-30T00:02:27;34.28;;;24.08;;
11113;SDS011;5610;52.154;9.198;2023-01-30T00:05:13;38.17;;;23.90;;
11113;SDS011;5610;52.154;9.198;2023-01-30T00:07:59;38.10;;;25.23;;
11113;SDS011;5610;52.154;9.198;2023-01-30T00:10:45;34.88;;;24.27;;
11113;SDS011;5610;52.154;9.198;2023-01-30T00:13:31;34.05;;;24.55;;
11113;SDS011;5610;52.154;9.198;2023-01-30T00:16:17;36.90;;;24.30;;
11113;SDS011;5610;52.154;9.198;2023-01-30T00:19:02;38.35;;;25.70;;
11113;SDS011;5610;52.154;9.198;2023-01-30T00:21:47;40.75;;;27.42;;
11113;SDS011;5610;52.154;9.198;2023-01-30T00:24:34;39.05;;;26.15;;
11113;SDS011;5610;52.154;9.198;2023-01-30T00:27:19;41.78;;;26.63;;
11113;SDS011;5610;52.154;9.198;2023-01-30T00:30:05;36.97;;;25.00;;
11113;SDS011;5610;52.154;9.198;2023-01-30T00:32:55;38.38;;;25.88;;
11113;SDS011;5610;52.154;9.198;2023-01-30T00:35:42;38.72;;;26.17;;
11113;SDS011;5610;52.154;9.198;2023-01-30T00:38:27;36.90;;;26.65;;
11113;SDS011;5610;52.154;9.198;2023-01-30T00:41:14;42.78;;;28.13;;
11113;SDS011;5610;52.154;9.198;2023-01-30T00:44:01;41.28;;;27.75;;
11113;SDS011;5610;52.154;9.198;2023-01-30T00:47:04;35.83;;;26.35;;
11113;SDS011;5610;52.154;9.198;2023-01-30T00:49:50;34.20;;;25.75;;
11113;SDS011;5610;52.154;9.198;2023-01-30T00:52:35;37.40;;;26.27;;
11113;SDS011;5610;52.154;9.198;2023-01-30T00:55:20;40.80;;;25.50;;
11113;SDS011;5610;52.154;9.198;2023-01-30T00:58:07;35.38;;;24.65;;
11113;SDS011;5610;52.154;9.198;2023-01-30T01:00:53;37.75;;;27.30;;
11113;SDS011;5610;52.154;9.198;2023-01-30T01:03:40;38.03;;;27.65;;
11113;SDS011;5610;52.154;9.198;2023-01-30T01:06:26;38.28;;;27.48;;
11113;SDS011;5610;52.154;9.198;2023-01-30T01:09:11;39.70;;;27.50;;
11113;SDS011;5610;52.154;9.198;2023-01-30T01:11:57;37.92;;;26.13;;
11113;SDS011;5610;52.154;9.198;2023-01-30T01:14:44;40.08;;;27.65;;
11113;SDS011;5610;52.154;9.198;2023-01-30T01:17:29;39.00;;;27.23;;
11113;SDS011;5610;52.154;9.198;2023-01-30T01:20:14;39.15;;;28.23;;
11113;SDS011;5610;52.154;9.198;2023-01-30T01:23:00;39.50;;;26.65;;
11113;SDS011;5610;52.154;9.198;2023-01-30T01:25:46;42.83;;;27.85;;
11113;SDS011;5610;52.154;9.198;2023-01-30T01:28:31;41.33;;;27.50;;
11113;SDS011;5610;52.154;9.198;2023-01-30T01:31:18;42.15;;;26.27;;
11113;SDS011;5610;52.154;9.198;2023-01-30T01:34:04;41.67;;;26.48;;
11113;SDS011;5610;52.154;9.198;2023-01-30T01:36:49;40.30;;;27.10;;
11113;SDS011;5610;52.154;9.198;2023-01-30T01:39:35;39.70;;;26.67;;
11113;SDS011;5610;52.154;9.198;2023-01-30T01:42:35;37.17;;;25.02;;
11113;SDS011;5610;52.154;9.198;2023-01-30T01:45:22;38.63;;;26.35;;
11113;SDS011;5610;52.154;9.198;2023-01-30T01:48:10;33.63;;;23.85;;
11113;SDS011;5610;52.154;9.198;2023-01-30T01:51:00;36.95;;;23.83;;
11113;SDS011;5610;52.154;9.198;2023-01-30T01:53:48;32.33;;;24.15;;
11113;SDS011;5610;52.154;9.198;2023-01-30T01:56:38;38.25;;;23.70;;
11113;SDS011;5610;52.154;9.198;2023-01-30T01:59:31;40.55;;;25.52;;
11113;SDS011;5610;52.154;9.198;2023-01-30T02:02:18;38.17;;;26.33;;
11113;SDS011;5610;52.154;9.198;2023-01-30T02:05:06;42.13;;;27.17;;
11113;SDS011;5610;52.154;9.198;2023-01-30T02:07:56;41.30;;;28.50;;
11113;SDS011;5610;52.154;9.198;2023-01-30T02:10:47;41.05;;;27.05;;
11113;SDS011;5610;52.154;9.198;2023-01-30T02:13:38;41.50;;;26.48;;
11113;SDS011;5610;52.154;9.198;2023-01-30T02:16:23;38.33;;;25.58;;
11113;SDS011;5610;52.154;9.198;2023-01-30T02:19:12;38.45;;;26.70;;
11113;SDS011;5610;52.154;9.198;2023-01-30T02:22:16;36.40;;;25.05;;
11113;SDS011;5610;52.154;9.198;2023-01-30T02:25:18;36.30;;;26.05;;
11113;SDS011;5610;52.154;9.198;2023-01-30T02:28:27;35.33;;;25.38;;
11113;SDS011;5610;52.154;9.198;2023-01-30T02:31:27;33.70;;;24.23;;
11113;SDS011;5610;52.154;9.198;2023-01-30T02:34:25;36.00;;;25.25;;
11113;SDS011;5610;52.154;9.198;2023-01-30T02:37:23;33.90;;;24.88;;
11113;SDS011;5610;52.154;9.198;2023-01-30T02:40:18;33.95;;;25.23;;
11113;SDS011;5610;52.154;9.198;2023-01-30T02:43:19;32.83;;;24.45;;
11113;SDS011;5610;52.154;9.198;2023-01-30T02:46:13;37.88;;;25.05;;
11113;SDS011;5610;52.154;9.198;2023-01-30T02:49:03;39.58;;;27.40;;
11113;SDS011;5610;52.154;9.198;2023-01-30T02:51:55;38.72;;;27.27;;
11113;SDS011;5610;52.154;9.198;2023-01-30T02:54:44;38.50;;;26.27;;
11113;SDS011;5610;52.154;9.198;2023-01-30T02:57:30;35.28;;;26.40;;
11113;SDS011;5610;52.154;9.198;2023-01-30T03:00:19;38.10;;;26.48;;
11113;SDS011;5610;52.154;9.198;2023-01-30T03:03:15;38.40;;;27.00;;
11113;SDS011;5610;52.154;9.198;2023-01-30T03:06:14;40.05;;;27.50;;
11113;SDS011;5610;52.154;9.198;2023-01-30T03:09:14;37.38;;;26.52;;
11113;SDS011;5610;52.154;9.198;2023-01-30T03:12:10;41.47;;;27.45;;
11113;SDS011;5610;52.154;9.198;2023-01-30T03:15:02;42.60;;;28.90;;
11113;SDS011;5610;52.154;9.198;2023-01-30T03:17:49;41.92;;;28.85;;
11113;SDS011;5610;52.154;9.198;2023-01-30T03:20:36;39.80;;;28.47;;
11113;SDS011;5610;52.154;9.198;2023-01-30T03:23:24;44.97;;;29.15;;
11113;SDS011;5610;52.154;9.198;2023-01-30T03:26:10;41.17;;;28.67;;
11113;SDS011;5610;52.154;9.198;2023-01-30T03:29:02;40.75;;;28.02;;
11113;SDS011;5610;52.154;9.198;2023-01-30T03:31:48;43.63;;;29.27;;
11113;SDS011;5610;52.154;9.198;2023-01-30T03:34:33;45.33;;;30.27;;
11113;SDS011;5610;52.154;9.198;2023-01-30T03:37:19;40.10;;;27.83;;
11113;SDS011;5610;52.154;9.198;2023-01-30T03:40:06;41.03;;;27.98;;
11113;SDS011;5610;52.154;9.198;2023-01-30T03:42:54;35.67;;;26.67;;
11113;SDS011;5610;52.154;9.198;2023-01-30T03:45:40;40.40;;;27.70;;
11113;SDS011;5610;52.154;9.198;2023-01-30T03:48:26;38.33;;;28.15;;
11113;SDS011;5610;52.154;9.198;2023-01-30T03:51:13;34.95;;;24.98;;
11113;SDS011;5610;52.154;9.198;2023-01-30T03:53:58;41.67;;;27.70;;
11113;SDS011;5610;52.154;9.198;2023-01-30T03:56:45;37.70;;;25.67;;
11113;SDS011;5610;52.154;9.198;2023-01-30T03:59:30;39.00;;;26.53;;
11113;SDS011;5610;52.154;9.198;2023-01-30T04:02:22;32.15;;;24.42;;
11113;SDS011;5610;52.154;9.198;2023-01-30T04:05:09;32.53;;;23.20;;
11113;SDS011;5610;52.154;9.198;2023-01-30T04:07:57;31.63;;;23.10;;
11113;SDS011;5610;52.154;9.198;2023-01-30T04:10:42;28.73;;;21.50;;
11113;SDS011;5610;52.154;9.198;2023-01-30T04:13:29;29.63;;;22.40;;
11113;SDS011;5610;52.154;9.198;2023-01-30T04:16:15;29.17;;;22.23;;
11113;SDS011;5610;52.154;9.198;2023-01-30T04:19:21;27.17;;;20.13;;
11113;SDS011;5610;52.154;9.198;2023-01-30T04:22:06;24.40;;;18.57;;
11113;SDS011;5610;52.154;9.198;2023-01-30T04:24:52;25.33;;;19.20;;
11113;SDS011;5610;52.154;9.198;2023-01-30T04:27:37;24.50;;;19.20;;
11113;SDS011;5610;52.154;9.198;2023-01-30T04:30:37;23.52;;;18.48;;
11113;SDS011;5610;52.154;9.198;2023-01-30T04:33:42;27.38;;;17.73;;
11113;SDS011;5610;52.154;9.198;2023-01-30T04:36:28;27.10;;;18.70;;
11113;SDS011;5610;52.154;9.198;2023-01-30T04:39:14;24.23;;;17.40;;
11113;SDS011;5610;52.154;9.198;2023-01-30T04:41:59;23.10;;;18.90;;
11113;SDS011;5610;52.154;9.198;2023-01-30T04:44:49;24.20;;;19.27;;
11113;SDS011;5610;52.154;9.198;2023-01-30T04:47:38;21.03;;;17.40;;
11113;SDS011;5610;52.154;9.198;2023-01-30T04:50:24;21.23;;;16.90;;
11113;SDS011;5610;52.154;9.198;2023-01-30T04:53:10;21.73;;;16.70;;
11113;SDS011;5610;52.154;9.198;2023-01-30T04:55:55;20.30;;;16.43;;
11113;SDS011;5610;52.154;9.198;2023-01-30T04:58:40;24.40;;;17.20;;
11113;SDS011;5610;52.154;9.198;2023-01-30T05:01:29;20.17;;;16.35;;
11113;SDS011;5610;52.154;9.198;2023-01-30T05:04:17;22.00;;;16.67;;
11113;SDS011;5610;52.154;9.198;2023-01-30T05:07:03;22.33;;;16.37;;
11113;SDS011;5610;52.154;9.198;2023-01-30T05:09:48;20.70;;;16.40;;
11113;SDS011;5610;52.154;9.198;2023-01-30T05:12:33;21.40;;;15.40;;
11113;SDS011;5610;52.154;9.198;2023-01-30T05:15:19;18.43;;;15.20;;
11113;SDS011;5610;52.154;9.198;2023-01-30T05:18:04;18.93;;;15.13;;
11113;SDS011;5610;52.154;9.198;2023-01-30T05:20:51;22.00;;;15.80;;
11113;SDS011;5610;52.154;9.198;2023-01-30T05:23:36;19.33;;;16.83;;
11113;SDS011;5610;52.154;9.198;2023-01-30T05:26:21;24.17;;;18.93;;
11113;SDS011;5610;52.154;9.198;2023-01-30T05:29:08;19.63;;;16.47;;
11113;SDS011;5610;52.154;9.198;2023-01-30T05:31:54;29.07;;;24.93;;
11113;SDS011;5610;52.154;9.198;2023-01-30T05:34:39;24.43;;;19.20;;
11113;SDS011;5610;52.154;9.198;2023-01-30T05:37:26;20.00;;;16.60;;
11113;SDS011;5610;52.154;9.198;2023-01-30T05:40:12;23.80;;;18.40;;
11113;SDS011;5610;52.154;9.198;2023-01-30T05:42:57;19.33;;;16.07;;
11113;SDS011;5610;52.154;9.198;2023-01-30T05:45:43;20.53;;;18.00;;
11113;SDS011;5610;52.154;9.198;2023-01-30T05:48:36;20.87;;;15.63;;
11113;SDS011;5610;52.154;9.198;2023-01-30T05:51:21;16.53;;;14.63;;
11113;SDS011;5610;52.154;9.198;2023-01-30T05:54:09;18.17;;;14.37;;
11113;SDS011;5610;52.154;9.198;2023-01-30T05:56:55;17.83;;;13.87;;
11113;SDS011;5610;52.154;9.198;2023-01-30T05:59:40;18.50;;;14.53;;
11113;SDS011;5610;52.154;9.198;2023-01-30T06:02:25;18.97;;;13.83;;
11113;SDS011;5610;52.154;9.198;2023-01-30T06:05:11;13.53;;;11.90;;
11113;SDS011;5610;52.154;9.198;2023-01-30T06:07:56;14.00;;;10.70;;
11113;SDS011;5610;52.154;9.198;2023-01-30T06:10:43;13.90;;;11.43;;
11113;SDS011;5610;52.154;9.198;2023-01-30T06:13:28;22.30;;;17.00;;
11113;SDS011;5610;52.154;9.198;2023-01-30T06:16:14;20.00;;;16.20;;
11113;SDS011;5610;52.154;9.198;2023-01-30T06:19:01;19.50;;;14.80;;
11113;SDS011;5610;52.154;9.198;2023-01-30T06:21:46;14.43;;;12.20;;
11113;SDS011;5610;52.154;9.198;2023-01-30T06:24:31;13.83;;;9.57;;
11113;SDS011;5610;52.154;9.198;2023-01-30T06:27:18;14.83;;;10.93;;
11113;SDS011;5610;52.154;9.198;2023-01-30T06:30:03;13.33;;;11.30;;
11113;SDS011;5610;52.154;9.198;2023-01-30T06:32:49;14.10;;;10.30;;
11113;SDS011;5610;52.154;9.198;2023-01-30T06:35:35;11.00;;;9.70;;
11113;SDS011;5610;52.154;9.198;2023-01-30T06:38:21;9.60;;;8.23;;
11113;SDS011;5610;52.154;9.198;2023-01-30T06:41:07;10.50;;;7.80;;
11113;SDS011;5610;52.154;9.198;2023-01-30T06:43:53;9.37;;;7.40;;
11113;SDS011;5610;52.154;9.198;2023-01-30T06:46:39;10.13;;;7.17;;
11113;SDS011;5610;52.154;9.198;2023-01-30T06:49:24;7.90;;;6.30;;
11113;SDS011;5610;52.154;9.198;2023-01-30T06:52:10;11.10;;;7.53;;
11113;SDS011;5610;52.154;9.198;2023-01-30T06:54:55;11.10;;;7.20;;
11113;SDS011;5610;52.154;9.198;2023-01-30T06:57:40;7.60;;;6.47;;
11113;SDS011;5610;52.154;9.198;2023-01-30T07:00:27;19.30;;;7.20;;
11113;SDS011;5610;52.154;9.198;2023-01-30T07:03:13;8.13;;;5.67;;
11113;SDS011;5610;52.154;9.198;2023-01-30T07:06:00;9.53;;;6.50;;
11113;SDS011;5610;52.154;9.198;2023-01-30T07:08:45;12.93;;;6.33;;
11113;SDS011;5610;52.154;9.198;2023-01-30T07:11:31;12.93;;;6.90;;
11113;SDS011;5610;52.154;9.198;2023-01-30T07:14:16;10.07;;;6.77;;
11113;SDS011;5610;52.154;9.198;2023-01-30T07:17:03;12.70;;;5.70;;
11113;SDS011;5610;52.154;9.198;2023-01-30T07:19:48;8.43;;;4.87;;
11113;SDS011;5610;52.154;9.198;2023-01-30T07:22:34;7.40;;;5.17;;
11113;SDS011;5610;52.154;9.198;2023-01-30T07:25:20;7.50;;;5.23;;
11113;SDS011;5610;52.154;9.198;2023-01-30T07:28:06;9.37;;;4.43;;
11113;SDS011;5610;52.154;9.198;2023-01-30T07:30:53;14.30;;;5.67;;
11113;SDS011;5610;52.154;9.198;2023-01-30T07:33:39;11.43;;;6.50;;
11113;SDS011;5610;52.154;9.198;2023-01-30T07:36:25;12.87;;;5.77;;
11113;SDS011;5610;52.154;9.198;2023-01-30T07:39:10;15.80;;;7.37;;
11113;SDS011;5610;52.154;9.198;2023-01-30T07:41:56;17.63;;;9.50;;
11113;SDS011;5610;52.154;9.198;2023-01-30T07:44:43;16.63;;;6.43;;
11113;SDS011;5610;52.154;9.198;2023-01-30T07:47:29;12.83;;;8.70;;
11113;SDS011;5610;52.154;9.198;2023-01-30T07:50:16;16.50;;;8.43;;
11113;SDS011;5610;52.154;9.198;2023-01-30T07:53:02;16.23;;;9.70;;
11113;SDS011;5610;52.154;9.198;2023-01-30T07:55:47;18.43;;;10.53;;
11113;SDS011;5610;52.154;9.198;2023-01-30T07:58:32;17.33;;;6.17;;
11113;SDS011;5610;52.154;9.198;2023-01-30T08:01:18;11.80;;;6.67;;
11113;SDS011;5610;52.154;9.198;2023-01-30T08:04:03;11.60;;;5.00;;
11113;SDS011;5610;52.154;9.198;2023-01-30T08:06:50;37.63;;;22.40;;
11113;SDS011;5610;52.154;9.198;2023-01-30T08:09:36;19.53;;;8.20;;
11113;SDS011;5610;52.154;9.198;2023-01-30T08:12:21;20.23;;;5.47;;
11113;SDS011;5610;52.154;9.198;2023-01-30T08:15:07;12.10;;;6.03;;
11113;SDS011;5610;52.154;9.198;2023-01-30T08:17:53;17.60;;;5.10;;
11113;SDS011;5610;52.154;9.198;2023-01-30T08:20:39;14.70;;;5.43;;
11113;SDS011;5610;52.154;9.198;2023-01-30T08:23:26;14.60;;;5.20;;
11113;SDS011;5610;52.154;9.198;2023-01-30T08:26:12;16.97;;;5.60;;
11113;SDS011;5610;52.154;9.198;2023-01-30T08:28:57;14.57;;;4.07;;
11113;SDS011;5610;52.154;9.198;2023-01-30T08:31:43;8.47;;;3.90;;
11113;SDS011;5610;52.154;9.198;2023-01-30T08:34:28;9.97;;;3.33;;
11113;SDS011;5610;52.154;9.198;2023-01-30T08:37:14;21.17;;;4.50;;
11113;SDS011;5610;52.154;9.198;2023-01-30T08:40:00;11.73;;;4.00;;
11113;SDS011;5610;52.154;9.198;2023-01-30T08:42:46;13.20;;;4.67;;
11113;SDS011;5610;52.154;9.198;2023-01-30T08:45:31;11.87;;;4.40;;
11113;SDS011;5610;52.154;9.198;2023-01-30T08:48:16;16.23;;;4.57;;
11113;SDS011;5610;52.154;9.198;2023-01-30T08:51:02;11.53;;;4.93;;
11113;SDS011;5610;52.154;9.198;2023-01-30T08:53:47;14.33;;;4.40;;
11113;SDS011;5610;52.154;9.198;2023-01-30T08:56:34;11.80;;;4.07;;
11113;SDS011;5610;52.154;9.198;2023-01-30T08:59:19;18.03;;;4.40;;
11113;SDS011;5610;52.154;9.198;2023-01-30T09:02:05;14.17;;;4.90;;
11113;SDS011;5610;52.154;9.198;2023-01-30T09:04:50;7.93;;;3.47;;
11113;SDS011;5610;52.154;9.198;2023-01-30T09:07:35;12.37;;;3.37;;
11113;SDS011;5610;52.154;9.198;2023-01-30T09:10:21;11.63;;;4.00;;
11113;SDS011;5610;52.154;9.198;2023-01-30T09:13:09;16.50;;;4.10;;
11113;SDS011;5610;52.154;9.198;2023-01-30T09:15:54;21.37;;;10.77;;
11113;SDS011;5610;52.154;9.198;2023-01-30T09:18:39;17.93;;;4.77;;
11113;SDS011;5610;52.154;9.198;2023-01-30T09:21:25;13.40;;;5.20;;
11113;SDS011;5610;52.154;9.198;2023-01-30T09:24:11;18.60;;;7.63;;
11113;SDS011;5610;52.154;9.198;2023-01-30T09:26:56;12.23;;;5.57;;
11113;SDS011;5610;52.154;9.198;2023-01-30T09:29:43;19.53;;;6.70;;
11113;SDS011;5610;52.154;9.198;2023-01-30T09:32:28;9.03;;;3.70;;
11113;SDS011;5610;52.154;9.198;2023-01-30T09:35:13;9.40;;;3.70;;
11113;SDS011;5610;52.154;9.198;2023-01-30T09:37:59;14.47;;;4.03;;
11113;SDS011;5610;52.154;9.198;2023-01-30T09:40:48;12.57;;;3.57;;
11113;SDS011;5610;52.154;9.198;2023-01-30T09:43:45;11.17;;;4.00;;
11113;SDS011;5610;52.154;9.198;2023-01-30T09:46:46;16.43;;;4.07;;
11113;SDS011;5610;52.154;9.198;2023-01-30T09:49:38;14.17;;;4.00;;
11113;SDS011;5610;52.154;9.198;2023-01-30T09:52:32;16.50;;;3.90;;
11113;SDS011;5610;52.154;9.198;2023-01-30T09:55:24;13.30;;;3.57;;
11113;SDS011;5610;52.154;9.198;2023-01-30T09:58:12;11.60;;;3.97;;
11113;SDS011;5610;52.154;9.198;2023-01-30T10:01:02;13.70;;;3.40;;
11113;SDS011;5610;52.154;9.198;2023-01-30T10:03:57;10.17;;;4.10;;
11113;SDS011;5610;52.154;9.198;2023-01-30T10:06:50;11.67;;;3.87;;
11113;SDS011;5610;52.154;9.198;2023-01-30T10:09:46;12.33;;;4.00;;
11113;SDS011;5610;52.154;9.198;2023-01-30T10:12:41;10.73;;;4.10;;
11113;SDS011;5610;52.154;9.198;2023-01-30T10:15:37;15.57;;;3.93;;
11113;SDS011;5610;52.154;9.198;2023-01-30T10:18:36;19.10;;;3.90;;
11113;SDS011;5610;52.154;9.198;2023-01-30T10:21:39;14.07;;;3.73;;
11113;SDS011;5610;52.154;9.198;2023-01-30T10:24:32;20.57;;;4.13;;
11113;SDS011;5610;52.154;9.198;2023-01-30T10:27:27;14.63;;;3.80;;
11113;SDS011;5610;52.154;9.198;2023-01-30T10:30:14;12.03;;;3.20;;
11113;SDS011;5610;52.154;9.198;2023-01-30T10:33:01;15.23;;;3.87;;
11113;SDS011;5610;52.154;9.198;2023-01-30T10:35:51;12.83;;;3.90;;
11113;SDS011;5610;52.154;9.198;2023-01-30T10:38:45;25.13;;;3.97;;
11113;SDS011;5610;52.154;9.198;2023-01-30T10:41:34;15.23;;;4.10;;
11113;SDS011;5610;52.154;9.198;2023-01-30T10:44:22;19.77;;;4.40;;
11113;SDS011;5610;52.154;9.198;2023-01-30T10:47:15;15.57;;;4.00;;
11113;SDS011;5610;52.154;9.198;2023-01-30T10:50:12;15.73;;;4.03;;
11113;SDS011;5610;52.154;9.198;2023-01-30T10:53:01;13.17;;;4.10;;
11113;SDS011;5610;52.154;9.198;2023-01-30T10:55:56;15.57;;;3.37;;
11113;SDS011;5610;52.154;9.198;2023-01-30T10:58:50;11.30;;;4.10;;
11113;SDS011;5610;52.154;9.198;2023-01-30T11:01:43;13.80;;;4.40;;
11113;SDS011;5610;52.154;9.198;2023-01-30T11:04:35;15.17;;;4.40;;
11113;SDS011;5610;52.154;9.198;2023-01-30T11:07:28;15.67;;;3.80;;
11113;SDS011;5610;52.154;9.198;2023-01-30T11:10:16;16.57;;;3.60;;
11113;SDS011;5610;52.154;9.198;2023-01-30T11:13:10;14.93;;;3.90;;
11113;SDS011;5610;52.154;9.198;2023-01-30T11:16:03;15.97;;;4.40;;
11113;SDS011;5610;52.154;9.198;2023-01-30T11:18:51;14.03;;;4.80;;
11113;SDS011;5610;52.154;9.198;2023-01-30T11:21:41;14.20;;;4.50;;
11113;SDS011;5610;52.154;9.198;2023-01-30T11:24:37;17.97;;;4.83;;
11113;SDS011;5610;52.154;9.198;2023-01-30T11:27:24;16.23;;;4.30;;
11113;SDS011;5610;52.154;9.198;2023-01-30T11:30:15;12.67;;;3.60;;
11113;SDS011;5610;52.154;9.198;2023-01-30T11:33:05;8.33;;;3.10;;
11113;SDS011;5610;52.154;9.198;2023-01-30T11:35:58;12.73;;;4.07;;
11113;SDS011;5610;52.154;9.198;2023-01-30T11:38:52;12.30;;;3.83;;
11113;SDS011;5610;52.154;9.198;2023-01-30T11:41:40;17.20;;;3.80;;
11113;SDS011;5610;52.154;9.198;2023-01-30T11:44:27;13.43;;;4.00;;
11113;SDS011;5610;52.154;9.198;2023-01-30T11:47:16;17.70;;;3.70;;
11113;SDS011;5610;52.154;9.198;2023-01-30T11:50:07;13.13;;;4.00;;
11113;SDS011;5610;52.154;9.198;2023-01-30T11:53:01;18.90;;;4.77;;
11113;SDS011;5610;52.154;9.198;2023-01-30T11:55:50;19.73;;;5.13;;
11113;SDS011;5610;52.154;9.198;2023-01-30T11:58:37;17.60;;;5.90;;
11113;SDS011;5610;52.154;9.198;2023-01-30T12:14:18;18.00;;;6.87;;
11113;SDS011;5610;52.154;9.198;2023-01-30T12:17:12;11.53;;;3.57;;
11113;SDS011;5610;52.154;9.198;2023-01-30T12:20:04;11.07;;;3.60;;
11113;SDS011;5610;52.154;9.198;2023-01-30T12:23:03;7.80;;;2.10;;
11113;SDS011;5610;52.154;9.198;2023-01-30T12:25:56;9.67;;;2.57;;
11113;SDS011;5610;52.154;9.198;2023-01-30T12:28:45;9.77;;;2.83;;
11113;SDS011;5610;52.154;9.198;2023-01-30T12:31:38;12.00;;;3.37;;
11113;SDS011;5610;52.154;9.198;2023-01-30T12:34:29;8.00;;;3.70;;
11113;SDS011;5610;52.154;9.198;2023-01-30T12:37:20;7.37;;;2.90;;
11113;SDS011;5610;52.154;9.198;2023-01-30T12:40:18;11.03;;;3.57;;
11113;SDS011;5610;52.154;9.198;2023-01-30T12:43:20;12.50;;;3.07;;
11113;SDS011;5610;52.154;9.198;2023-01-30T12:46:19;13.67;;;3.80;;
11113;SDS011;5610;52.154;9.198;2023-01-30T12:49:29;13.77;;;3.70;;
11113;SDS011;5610;52.154;9.198;2023-01-30T12:52:33;11.47;;;3.03;;
11113;SDS011;5610;52.154;9.198;2023-01-30T12:55:35;7.10;;;2.63;;
11113;SDS011;5610;52.154;9.198;2023-01-30T12:58:27;13.70;;;2.93;;
11113;SDS011;5610;52.154;9.198;2023-01-30T13:01:18;4.60;;;2.07;;
11113;SDS011;5610;52.154;9.198;2023-01-30T13:04:14;3.20;;;1.70;;
11113;SDS011;5610;52.154;9.198;2023-01-30T13:07:10;6.20;;;2.53;;
11113;SDS011;5610;52.154;9.198;2023-01-30T13:10:05;7.63;;;2.40;;
11113;SDS011;5610;52.154;9.198;2023-01-30T13:13:03;5.83;;;2.37;;
11113;SDS011;5610;52.154;9.198;2023-01-30T13:15:59;5.10;;;2.37;;
11113;SDS011;5610;52.154;9.198;2023-01-30T13:18:50;8.27;;;2.30;;
11113;SDS011;5610;52.154;9.198;2023-01-30T13:21:40;9.43;;;2.53;;
11113;SDS011;5610;52.154;9.198;2023-01-30T13:24:34;11.20;;;3.20;;
11113;SDS011;5610;52.154;9.198;2023-01-30T13:27:32;8.60;;;2.97;;
11113;SDS011;5610;52.154;9.198;2023-01-30T13:30:21;12.10;;;2.30;;
11113;SDS011;5610;52.154;9.198;2023-01-30T13:33:08;9.93;;;3.27;;
11113;SDS011;5610;52.154;9.198;2023-01-30T13:36:02;9.00;;;2.73;;
11113;SDS011;5610;52.154;9.198;2023-01-30T13:38:55;6.33;;;2.87;;
11113;SDS011;5610;52.154;9.198;2023-01-30T13:41:47;12.07;;;2.90;;
11113;SDS011;5610;52.154;9.198;2023-01-30T13:44:40;9.20;;;2.93;;
11113;SDS011;5610;52.154;9.198;2023-01-30T13:47:31;12.00;;;2.83;;
11113;SDS011;5610;52.154;9.198;2023-01-30T13:50:34;10.43;;;2.80;;
11113;SDS011;5610;52.154;9.198;2023-01-30T13:53:29;12.60;;;2.73;;
11113;SDS011;5610;52.154;9.198;2023-01-30T13:56:25;12.60;;;3.50;;
11113;SDS011;5610;52.154;9.198;2023-01-30T13:59:21;12.60;;;3.97;;
11113;SDS011;5610;52.154;9.198;2023-01-30T14:02:18;13.43;;;3.60;;
11113;SDS011;5610;52.154;9.198;2023-01-30T14:05:06;11.13;;;3.50;;
11113;SDS011;5610;52.154;9.198;2023-01-30T14:07:53;16.80;;;4.67;;
11113;SDS011;5610;52.154;9.198;2023-01-30T14:10:38;11.97;;;4.80;;
11113;SDS011;5610;52.154;9.198;2023-01-30T14:13:24;11.00;;;3.43;;
11113;SDS011;5610;52.154;9.198;2023-01-30T14:16:12;5.97;;;2.60;;
11113;SDS011;5610;52.154;9.198;2023-01-30T14:18:59;12.83;;;4.13;;
11113;SDS011;5610;52.154;9.198;2023-01-30T14:22:15;11.10;;;3.20;;
11113;SDS011;5610;52.154;9.198;2023-01-30T14:31:46;13.67;;;2.80;;
11113;SDS011;5610;52.154;9.198;2023-01-30T14:37:28;10.87;;;2.77;;
11113;SDS011;5610;52.154;9.198;2023-01-30T14:40:37;7.73;;;3.00;;
11113;SDS011;5610;52.154;9.198;2023-01-30T14:43:36;14.47;;;3.17;;
11113;SDS011;5610;52.154;9.198;2023-01-30T14:46:41;12.07;;;3.70;;
11113;SDS011;5610;52.154;9.198;2023-01-30T14:49:31;9.20;;;2.80;;
11113;SDS011;5610;52.154;9.198;2023-01-30T14:52:21;9.40;;;2.70;;
11113;SDS011;5610;52.154;9.198;2023-01-30T14:55:16;12.50;;;2.90;;
11113;SDS011;5610;52.154;9.198;2023-01-30T14:58:04;19.47;;;3.73;;
11113;SDS011;5610;52.154;9.198;2023-01-30T15:00:54;12.90;;;3.23;;
11113;SDS011;5610;52.154;9.198;2023-01-30T15:03:44;11.00;;;3.30;;
11113;SDS011;5610;52.154;9.198;2023-01-30T15:06:34;12.80;;;3.00;;
11113;SDS011;5610;52.154;9.198;2023-01-30T15:09:21;11.70;;;3.50;;
11113;SDS011;5610;52.154;9.198;2023-01-30T15:12:14;13.77;;;3.93;;
11113;SDS011;5610;52.154;9.198;2023-01-30T15:15:13;11.43;;;3.07;;
11113;SDS011;5610;52.154;9.198;2023-01-30T15:18:20;10.80;;;3.20;;
11113;SDS011;5610;52.154;9.198;2023-01-30T15:21:22;13.60;;;3.33;;
11113;SDS011;5610;52.154;9.198;2023-01-30T15:27:48;7.93;;;3.07;;
11113;SDS011;5610;52.154;9.198;2023-01-30T15:30:47;16.83;;;4.37;;
11113;SDS011;5610;52.154;9.198;2023-01-30T15:33:44;12.60;;;4.20;;
11113;SDS011;5610;52.154;9.198;2023-01-30T15:36:31;14.53;;;3.20;;
11113;SDS011;5610;52.154;9.198;2023-01-30T15:39:19;11.70;;;3.10;;
11113;SDS011;5610;52.154;9.198;2023-01-30T15:42:06;9.43;;;3.00;;
11113;SDS011;5610;52.154;9.198;2023-01-30T15:45:00;18.60;;;4.43;;
11113;SDS011;5610;52.154;9.198;2023-01-30T15:48:02;15.27;;;3.30;;
11113;SDS011;5610;52.154;9.198;2023-01-30T15:50:59;11.63;;;5.40;;
11113;SDS011;5610;52.154;9.198;2023-01-30T15:53:45;21.70;;;10.20;;
11113;SDS011;5610;52.154;9.198;2023-01-30T15:56:31;16.77;;;8.03;;
11113;SDS011;5610;52.154;9.198;2023-01-30T15:59:22;13.70;;;4.30;;
11113;SDS011;5610;52.154;9.198;2023-01-30T16:02:14;13.77;;;5.50;;
11113;SDS011;5610;52.154;9.198;2023-01-30T16:05:04;17.63;;;4.23;;
11113;SDS011;5610;52.154;9.198;2023-01-30T16:07:57;16.07;;;5.87;;
11113;SDS011;5610;52.154;9.198;2023-01-30T16:10:53;15.67;;;5.13;;
11113;SDS011;5610;52.154;9.198;2023-01-30T16:13:39;13.33;;;4.07;;
11113;SDS011;5610;52.154;9.198;2023-01-30T16:16:25;12.70;;;4.10;;
11113;SDS011;5610;52.154;9.198;2023-01-30T16:19:17;11.63;;;4.50;;
11113;SDS011;5610;52.154;9.198;2023-01-30T16:22:11;15.70;;;4.00;;
11113;SDS011;5610;52.154;9.198;2023-01-30T16:25:00;21.67;;;4.13;;
11113;SDS011;5610;52.154;9.198;2023-01-30T16:27:47;16.77;;;5.83;;
11113;SDS011;5610;52.154;9.198;2023-01-30T16:30:34;17.93;;;3.83;;
11113;SDS011;5610;52.154;9.198;2023-01-30T16:33:24;12.43;;;4.33;;
11113;SDS011;5610;52.154;9.198;2023-01-30T16:39:29;11.07;;;4.00;;
11113;SDS011;5610;52.154;9.198;2023-01-30T16:42:18;14.30;;;3.80;;
11113;SDS011;5610;52.154;9.198;2023-01-30T16:45:20;19.27;;;4.37;;
11113;SDS011;5610;52.154;9.198;2023-01-30T16:48:44;15.80;;;3.73;;
11113;SDS011;5610;52.154;9.198;2023-01-30T16:51:31;11.00;;;3.57;;
11113;SDS011;5610;52.154;9.198;2023-01-30T16:54:20;11.80;;;3.50;;
11113;SDS011;5610;52.154;9.198;2023-01-30T16:57:13;15.40;;;3.83;;
11113;SDS011;5610;52.154;9.198;2023-01-30T17:00:11;11.23;;;3.83;;
11113;SDS011;5610;52.154;9.198;2023-01-30T17:03:05;15.23;;;3.73;;
11113;SDS011;5610;52.154;9.198;2023-01-30T17:06:02;12.53;;;3.27;;
11113;SDS011;5610;52.154;9.198;2023-01-30T17:08:56;10.70;;;3.40;;
11113;SDS011;5610;52.154;9.198;2023-01-30T17:11:45;14.87;;;3.73;;
11113;SDS011;5610;52.154;9.198;2023-01-30T17:14:30;13.37;;;3.57;;
11113;SDS011;5610;52.154;9.198;2023-01-30T17:17:15;8.67;;;3.40;;
11113;SDS011;5610;52.154;9.198;2023-01-30T17:20:02;13.70;;;4.00;;
11113;SDS011;5610;52.154;9.198;2023-01-30T17:22:49;19.83;;;4.07;;
11113;SDS011;5610;52.154;9.198;2023-01-30T17:25:39;11.50;;;4.30;;
11113;SDS011;5610;52.154;9.198;2023-01-30T17:28:26;14.90;;;3.97;;